sensor_id;sensor_type;location;lat;lon;timestamp;pressure;altitude;pressure_sealevel;temperature;humidity
12219;BME280;6172;42.646;23.344;2023-04-15T00:00:17;93821.97;;;5.99;100.00
12219;BME280;6172;42.646;23.344;2023-04-15T00:02:45;93808.28;;;5.79;100.00
12219;BME280;6172;42.646;23.344;2023-04-15T00:05:12;93805.06;;;5.91;100.00
12219;BME280;6172;42.646;23.344;2023-04-15T00:07:39;93816.56;;;5.99;100.00
12219;BME280;6172;42.646;23.344;2023-04-15T00:10:07;93819.69;;;5.97;100.00
12219;BME280;6172;42.646;23.344;2023-04-15T00:12:34;93840.22;;;5.91;100.00
12219;BME280;6172;42.646;23.344;2023-04-15T00:15:01;93855.72;;;5.87;100.00
12219;BME280;6172;42.646;23.344;2023-04-15T00:17:30;93854.06;;;5.97;100.00
12219;BME280;6172;42.646;23.344;2023-04-15T00:19:56;93855.31;;;5.89;100.00
12219;BME280;6172;42.646;23.344;2023-04-15T00:22:24;93852.22;;;5.90;100.00
12219;BME280;6172;42.646;23.344;2023-04-15T00:24:51;93850.25;;;5.94;100.00
12219;BME280;6172;42.646;23.344;2023-04-15T00:27:18;93847.03;;;6.03;100.00
12219;BME280;6172;42.646;23.344;2023-04-15T00:29:45;93854.97;;;6.17;100.00
12219;BME280;6172;42.646;23.344;2023-04-15T00:32:12;93834.56;;;6.12;100.00
12219;BME280;6172;42.646;23.344;2023-04-15T00:34:41;93840.75;;;6.13;100.00
12219;BME280;6172;42.646;23.344;2023-04-15T00:37:08;93843.38;;;6.16;100.00
12219;BME280;6172;42.646;23.344;2023-04-15T00:39:35;93841.25;;;6.31;100.00
12219;BME280;6172;42.646;23.344;2023-04-15T00:42:03;93847.09;;;6.29;100.00
12219;BME280;6172;42.646;23.344;2023-04-15T00:44:32;93856.44;;;6.25;100.00
12219;BME280;6172;42.646;23.344;2023-04-15T00:46:59;93863.75;;;5.94;100.00
12219;BME280;6172;42.646;23.344;2023-04-15T00:49:26;93861.78;;;5.98;100.00
12219;BME280;6172;42.646;23.344;2023-04-15T00:51:56;93847.69;;;5.80;100.00
12219;BME280;6172;42.646;23.344;2023-04-15T00:54:22;93859.75;;;5.72;100.00
12219;BME280;6172;42.646;23.344;2023-04-15T00:56:50;93863.75;;;5.94;100.00
12219;BME280;6172;42.646;23.344;2023-04-15T00:59:17;93867.34;;;5.84;100.00
12219;BME280;6172;42.646;23.344;2023-04-15T01:01:45;93866.56;;;5.46;100.00
12219;BME280;6172;42.646;23.344;2023-04-15T01:04:12;93874.09;;;5.28;100.00
12219;BME280;6172;42.646;23.344;2023-04-15T01:06:40;93879.13;;;5.67;100.00
12219;BME280;6172;42.646;23.344;2023-04-15T01:09:08;93879.88;;;5.67;100.00
12219;BME280;6172;42.646;23.344;2023-04-15T01:11:35;93879.66;;;5.89;100.00
12219;BME280;6172;42.646;23.344;2023-04-15T01:14:02;93862.16;;;6.00;100.00
12219;BME280;6172;42.646;23.344;2023-04-15T01:16:30;93864.44;;;6.02;100.00
12219;BME280;6172;42.646;23.344;2023-04-15T01:18:57;93866.19;;;6.19;100.00
12219;BME280;6172;42.646;23.344;2023-04-15T01:21:24;93869.13;;;6.28;100.00
12219;BME280;6172;42.646;23.344;2023-04-15T01:23:52;93857.38;;;6.11;100.00
12219;BME280;6172;42.646;23.344;2023-04-15T01:26:22;93865.47;;;6.11;100.00
12219;BME280;6172;42.646;23.344;2023-04-15T01:28:49;93858.56;;;6.10;100.00
12219;BME280;6172;42.646;23.344;2023-04-15T01:31:16;93855.66;;;6.24;100.00
12219;BME280;6172;42.646;23.344;2023-04-15T01:33:43;93850.34;;;6.17;100.00
12219;BME280;6172;42.646;23.344;2023-04-15T01:36:10;93851.84;;;6.22;100.00
12219;BME280;6172;42.646;23.344;2023-04-15T01:38:37;93856.78;;;6.27;100.00
12219;BME280;6172;42.646;23.344;2023-04-15T01:41:04;93846.78;;;6.24;100.00
12219;BME280;6172;42.646;23.344;2023-04-15T01:43:35;93851.06;;;6.21;100.00
12219;BME280;6172;42.646;23.344;2023-04-15T01:46:02;93860.44;;;6.13;100.00
12219;BME280;6172;42.646;23.344;2023-04-15T01:48:29;93856.78;;;6.27;100.00
12219;BME280;6172;42.646;23.344;2023-04-15T01:50:57;93855.56;;;6.31;100.00
12219;BME280;6172;42.646;23.344;2023-04-15T01:53:24;93869.47;;;6.33;100.00
12219;BME280;6172;42.646;23.344;2023-04-15T01:55:51;93872.50;;;6.39;100.00
12219;BME280;6172;42.646;23.344;2023-04-15T01:58:18;93878.16;;;6.18;100.00
12219;BME280;6172;42.646;23.344;2023-04-15T02:00:47;93884.34;;;6.18;100.00
12219;BME280;6172;42.646;23.344;2023-04-15T02:03:15;93884.41;;;6.15;100.00
12219;BME280;6172;42.646;23.344;2023-04-15T02:05:42;93875.72;;;6.27;100.00
12219;BME280;6172;42.646;23.344;2023-04-15T02:08:09;93874.28;;;6.19;100.00
12219;BME280;6172;42.646;23.344;2023-04-15T02:10:36;93875.84;;;6.16;100.00
12219;BME280;6172;42.646;23.344;2023-04-15T02:13:03;93866.66;;;6.10;100.00
12219;BME280;6172;42.646;23.344;2023-04-15T02:15:30;93871.78;;;6.01;100.00
12219;BME280;6172;42.646;23.344;2023-04-15T02:17:59;93861.25;;;5.39;100.00
12219;BME280;6172;42.646;23.344;2023-04-15T02:20:26;93867.50;;;5.29;100.00
12219;BME280;6172;42.646;23.344;2023-04-15T02:22:55;93859.41;;;5.29;100.00
12219;BME280;6172;42.646;23.344;2023-04-15T02:25:22;93864.72;;;5.36;100.00
12219;BME280;6172;42.646;23.344;2023-04-15T02:27:49;93872.97;;;5.63;100.00
12219;BME280;6172;42.646;23.344;2023-04-15T02:30:16;93875.06;;;5.45;100.00
12219;BME280;6172;42.646;23.344;2023-04-15T02:32:43;93866.97;;;5.45;100.00
12219;BME280;6172;42.646;23.344;2023-04-15T02:35:11;93864.84;;;5.63;100.00
12219;BME280;6172;42.646;23.344;2023-04-15T02:37:38;93860.94;;;5.67;100.00
12219;BME280;6172;42.646;23.344;2023-04-15T02:40:08;93863.25;;;5.69;100.00
12219;BME280;6172;42.646;23.344;2023-04-15T02:42:37;93866.44;;;5.60;100.00
12219;BME280;6172;42.646;23.344;2023-04-15T02:45:05;93870.22;;;5.70;100.00
12219;BME280;6172;42.646;23.344;2023-04-15T02:47:33;93880.25;;;5.66;100.00
12219;BME280;6172;42.646;23.344;2023-04-15T02:50:01;93864.19;;;5.52;100.00
12219;BME280;6172;42.646;23.344;2023-04-15T02:52:29;93864.13;;;5.59;100.00
12219;BME280;6172;42.646;23.344;2023-04-15T02:54:56;93859.59;;;5.49;100.00
12219;BME280;6172;42.646;23.344;2023-04-15T02:57:25;93866.34;;;5.67;100.00
12219;BME280;6172;42.646;23.344;2023-04-15T02:59:53;93869.97;;;5.54;100.00
12219;BME280;6172;42.646;23.344;2023-04-15T03:02:20;93876.41;;;5.23;100.00
12219;BME280;6172;42.646;23.344;2023-04-15T03:04:46;93862.66;;;5.10;100.00
12219;BME280;6172;42.646;23.344;2023-04-15T03:07:13;93893.31;;;5.34;100.00
12219;BME280;6172;42.646;23.344;2023-04-15T03:09:42;93895.38;;;5.19;100.00
12219;BME280;6172;42.646;23.344;2023-04-15T03:12:09;93900.72;;;5.26;100.00
12219;BME280;6172;42.646;23.344;2023-04-15T03:14:36;93899.66;;;5.17;100.00
12219;BME280;6172;42.646;23.344;2023-04-15T03:17:03;93905.06;;;5.10;100.00
12219;BME280;6172;42.646;23.344;2023-04-15T03:19:30;93901.06;;;4.77;100.00
12219;BME280;6172;42.646;23.344;2023-04-15T03:21:57;93895.50;;;4.37;100.00
12219;BME280;6172;42.646;23.344;2023-04-15T03:24:24;93908.31;;;4.19;100.00
12219;BME280;6172;42.646;23.344;2023-04-15T03:26:53;93897.16;;;4.17;100.00
12219;BME280;6172;42.646;23.344;2023-04-15T03:29:20;93917.53;;;4.28;100.00
12219;BME280;6172;42.646;23.344;2023-04-15T03:31:47;93913.22;;;4.41;100.00
12219;BME280;6172;42.646;23.344;2023-04-15T03:34:14;93917.59;;;3.97;100.00
12219;BME280;6172;42.646;23.344;2023-04-15T03:36:42;93931.47;;;4.06;100.00
12219;BME280;6172;42.646;23.344;2023-04-15T03:39:08;93924.88;;;4.28;100.00
12219;BME280;6172;42.646;23.344;2023-04-15T03:41:36;93931.47;;;4.13;100.00
12219;BME280;6172;42.646;23.344;2023-04-15T03:44:05;93936.06;;;4.05;100.00
12219;BME280;6172;42.646;23.344;2023-04-15T03:46:32;93933.75;;;4.04;100.00
12219;BME280;6172;42.646;23.344;2023-04-15T03:48:59;93945.72;;;3.99;100.00
12219;BME280;6172;42.646;23.344;2023-04-15T03:51:26;93951.47;;;4.19;100.00
12219;BME280;6172;42.646;23.344;2023-04-15T03:53:53;93945.25;;;4.36;100.00
12219;BME280;6172;42.646;23.344;2023-04-15T03:56:20;93952.13;;;4.51;100.00
12219;BME280;6172;42.646;23.344;2023-04-15T03:58:47;93940.50;;;4.61;100.00
12219;BME280;6172;42.646;23.344;2023-04-15T04:01:15;93942.81;;;4.59;100.00
12219;BME280;6172;42.646;23.344;2023-04-15T04:03:42;93938.91;;;4.70;100.00
12219;BME280;6172;42.646;23.344;2023-04-15T04:06:09;93940.47;;;4.64;100.00
12219;BME280;6172;42.646;23.344;2023-04-15T04:08:37;93948.53;;;4.75;100.00
12219;BME280;6172;42.646;23.344;2023-04-15T04:11:04;93963.16;;;4.81;100.00
12219;BME280;6172;42.646;23.344;2023-04-15T04:13:31;93957.84;;;4.63;100.00
12219;BME280;6172;42.646;23.344;2023-04-15T04:15:57;93953.03;;;4.06;100.00
12219;BME280;6172;42.646;23.344;2023-04-15T04:18:26;93967.66;;;3.98;100.00
12219;BME280;6172;42.646;23.344;2023-04-15T04:20:53;93964.53;;;4.24;100.00
12219;BME280;6172;42.646;23.344;2023-04-15T04:23:20;93961.09;;;4.20;100.00
12219;BME280;6172;42.646;23.344;2023-04-15T04:25:47;93955.66;;;4.27;100.00
12219;BME280;6172;42.646;23.344;2023-04-15T04:28:14;93948.31;;;4.38;100.00
12219;BME280;6172;42.646;23.344;2023-04-15T04:30:41;93954.44;;;4.45;100.00
12219;BME280;6172;42.646;23.344;2023-04-15T04:33:09;93958.69;;;4.43;100.00
12219;BME280;6172;42.646;23.344;2023-04-15T04:35:37;93947.59;;;4.20;100.00
12219;BME280;6172;42.646;23.344;2023-04-15T04:38:08;93951.38;;;4.40;100.00
12219;BME280;6172;42.646;23.344;2023-04-15T04:40:36;93958.31;;;4.48;100.00
12219;BME280;6172;42.646;23.344;2023-04-15T04:43:03;93963.28;;;4.56;100.00
12219;BME280;6172;42.646;23.344;2023-04-15T04:45:30;93973.91;;;4.84;100.00
12219;BME280;6172;42.646;23.344;2023-04-15T04:47:56;93973.56;;;4.79;100.00
12219;BME280;6172;42.646;23.344;2023-04-15T04:50:23;93966.19;;;4.83;100.00
12219;BME280;6172;42.646;23.344;2023-04-15T04:52:51;93973.03;;;5.05;100.00
12219;BME280;6172;42.646;23.344;2023-04-15T04:55:18;93964.09;;;5.15;100.00
12219;BME280;6172;42.646;23.344;2023-04-15T04:57:45;93971.34;;;5.25;100.00
12219;BME280;6172;42.646;23.344;2023-04-15T05:00:13;93976.91;;;5.51;100.00
12219;BME280;6172;42.646;23.344;2023-04-15T05:02:40;93972.94;;;5.70;100.00
12219;BME280;6172;42.646;23.344;2023-04-15T05:05:11;93960.03;;;5.85;100.00
12219;BME280;6172;42.646;23.344;2023-04-15T05:07:38;93973.78;;;6.01;100.00
12219;BME280;6172;42.646;23.344;2023-04-15T05:10:08;93988.28;;;6.58;100.00
12219;BME280;6172;42.646;23.344;2023-04-15T05:12:35;93980.22;;;7.64;100.00
12219;BME280;6172;42.646;23.344;2023-04-15T05:15:04;93984.41;;;8.77;100.00
12219;BME280;6172;42.646;23.344;2023-04-15T05:17:31;93977.16;;;10.82;100.00
12219;BME280;6172;42.646;23.344;2023-04-15T05:19:59;93974.78;;;12.34;100.00
12219;BME280;6172;42.646;23.344;2023-04-15T05:22:26;93969.59;;;13.05;85.99
12219;BME280;6172;42.646;23.344;2023-04-15T05:24:53;93963.81;;;13.55;72.56
12219;BME280;6172;42.646;23.344;2023-04-15T05:27:21;93964.84;;;14.45;61.91
12219;BME280;6172;42.646;23.344;2023-04-15T05:29:49;93959.56;;;16.30;53.55
12219;BME280;6172;42.646;23.344;2023-04-15T05:32:16;93965.25;;;15.94;52.10
12219;BME280;6172;42.646;23.344;2023-04-15T05:34:44;93968.16;;;15.90;48.40
12219;BME280;6172;42.646;23.344;2023-04-15T05:37:11;93962.41;;;16.12;49.03
12219;BME280;6172;42.646;23.344;2023-04-15T05:39:38;93956.63;;;17.91;43.76
12219;BME280;6172;42.646;23.344;2023-04-15T05:42:07;93950.16;;;18.29;41.31
12219;BME280;6172;42.646;23.344;2023-04-15T05:44:39;93961.75;;;15.93;47.17
12219;BME280;6172;42.646;23.344;2023-04-15T05:47:06;93963.22;;;16.03;46.65
12219;BME280;6172;42.646;23.344;2023-04-15T05:49:34;93954.81;;;15.06;50.31
12219;BME280;6172;42.646;23.344;2023-04-15T05:52:01;93969.22;;;15.93;49.52
12219;BME280;6172;42.646;23.344;2023-04-15T05:54:28;93962.69;;;15.90;46.92
12219;BME280;6172;42.646;23.344;2023-04-15T05:56:54;93965.75;;;16.63;43.98
12219;BME280;6172;42.646;23.344;2023-04-15T05:59:21;93979.03;;;16.64;43.67
12219;BME280;6172;42.646;23.344;2023-04-15T06:01:50;93982.38;;;16.21;43.77
12219;BME280;6172;42.646;23.344;2023-04-15T06:04:18;93975.34;;;16.20;42.39
12219;BME280;6172;42.646;23.344;2023-04-15T06:06:45;93986.09;;;17.03;42.57
12219;BME280;6172;42.646;23.344;2023-04-15T06:09:12;93989.25;;;16.73;41.75
12219;BME280;6172;42.646;23.344;2023-04-15T06:11:41;93976.41;;;17.75;41.59
12219;BME280;6172;42.646;23.344;2023-04-15T06:14:08;93982.84;;;15.19;45.93
12219;BME280;6172;42.646;23.344;2023-04-15T06:16:35;93989.09;;;14.83;47.35
12219;BME280;6172;42.646;23.344;2023-04-15T06:19:03;93980.19;;;16.25;46.23
12219;BME280;6172;42.646;23.344;2023-04-15T06:21:30;93982.81;;;16.76;44.44
12219;BME280;6172;42.646;23.344;2023-04-15T06:23:58;93991.91;;;16.02;47.13
12219;BME280;6172;42.646;23.344;2023-04-15T06:26:25;93990.34;;;16.43;45.82
12219;BME280;6172;42.646;23.344;2023-04-15T06:28:52;93993.66;;;15.22;46.96
12219;BME280;6172;42.646;23.344;2023-04-15T06:31:20;93996.28;;;14.80;47.43
12219;BME280;6172;42.646;23.344;2023-04-15T06:33:48;94001.09;;;15.99;46.28
12219;BME280;6172;42.646;23.344;2023-04-15T06:36:16;94003.34;;;17.27;43.57
12219;BME280;6172;42.646;23.344;2023-04-15T06:38:43;94015.56;;;16.74;44.62
12219;BME280;6172;42.646;23.344;2023-04-15T06:41:10;94015.81;;;16.76;44.01
12219;BME280;6172;42.646;23.344;2023-04-15T06:43:37;94004.56;;;17.26;41.82
12219;BME280;6172;42.646;23.344;2023-04-15T06:46:04;94011.28;;;17.93;40.72
12219;BME280;6172;42.646;23.344;2023-04-15T06:48:31;94011.81;;;17.39;41.65
12219;BME280;6172;42.646;23.344;2023-04-15T06:50:58;94011.72;;;18.20;40.06
12219;BME280;6172;42.646;23.344;2023-04-15T06:53:26;94011.41;;;18.67;37.98
12219;BME280;6172;42.646;23.344;2023-04-15T06:55:53;94014.94;;;18.19;40.24
12219;BME280;6172;42.646;23.344;2023-04-15T06:58:20;94019.09;;;17.42;41.38
12219;BME280;6172;42.646;23.344;2023-04-15T07:00:47;94009.81;;;18.26;39.37
12219;BME280;6172;42.646;23.344;2023-04-15T07:03:14;94012.91;;;18.34;39.03
12219;BME280;6172;42.646;23.344;2023-04-15T07:05:41;94010.06;;;18.43;39.07
12219;BME280;6172;42.646;23.344;2023-04-15T07:08:07;94016.09;;;18.81;38.49
12219;BME280;6172;42.646;23.344;2023-04-15T07:10:36;94025.34;;;18.78;37.22
12219;BME280;6172;42.646;23.344;2023-04-15T07:13:03;94027.69;;;18.65;37.93
12219;BME280;6172;42.646;23.344;2023-04-15T07:15:33;94022.47;;;18.04;38.73
12219;BME280;6172;42.646;23.344;2023-04-15T07:18:00;94021.94;;;16.47;41.55
12219;BME280;6172;42.646;23.344;2023-04-15T07:20:26;94014.03;;;17.78;40.74
12219;BME280;6172;42.646;23.344;2023-04-15T07:22:53;94015.53;;;18.57;37.21
12219;BME280;6172;42.646;23.344;2023-04-15T07:25:20;94004.22;;;18.95;36.96
12219;BME280;6172;42.646;23.344;2023-04-15T07:27:49;94014.91;;;18.48;37.34
12219;BME280;6172;42.646;23.344;2023-04-15T07:30:16;94022.41;;;17.84;37.68
12219;BME280;6172;42.646;23.344;2023-04-15T07:32:43;94035.03;;;16.29;41.03
12219;BME280;6172;42.646;23.344;2023-04-15T07:35:10;94035.97;;;15.66;42.71
12219;BME280;6172;42.646;23.344;2023-04-15T07:37:40;94028.09;;;16.10;42.89
12219;BME280;6172;42.646;23.344;2023-04-15T07:40:09;94017.94;;;16.25;43.26
12219;BME280;6172;42.646;23.344;2023-04-15T07:42:36;94018.81;;;15.39;44.28
12219;BME280;6172;42.646;23.344;2023-04-15T07:45:09;94023.16;;;16.14;44.86
12219;BME280;6172;42.646;23.344;2023-04-15T07:47:37;94027.56;;;16.29;44.18
12219;BME280;6172;42.646;23.344;2023-04-15T07:50:05;94031.06;;;15.88;44.01
12219;BME280;6172;42.646;23.344;2023-04-15T07:52:33;94033.31;;;16.31;42.41
12219;BME280;6172;42.646;23.344;2023-04-15T07:55:04;94029.94;;;17.45;41.24
12219;BME280;6172;42.646;23.344;2023-04-15T07:57:31;94032.66;;;17.16;41.46
12219;BME280;6172;42.646;23.344;2023-04-15T07:59:58;94034.63;;;17.01;41.47
12219;BME280;6172;42.646;23.344;2023-04-15T08:02:27;94031.91;;;17.97;41.05
12219;BME280;6172;42.646;23.344;2023-04-15T08:04:54;94032.09;;;17.94;39.47
12219;BME280;6172;42.646;23.344;2023-04-15T08:07:22;94036.75;;;17.20;42.01
12219;BME280;6172;42.646;23.344;2023-04-15T08:09:49;94043.69;;;17.69;40.50
12219;BME280;6172;42.646;23.344;2023-04-15T08:12:17;94041.16;;;16.56;42.87
12219;BME280;6172;42.646;23.344;2023-04-15T08:14:44;94033.88;;;17.15;41.85
12219;BME280;6172;42.646;23.344;2023-04-15T08:17:11;94034.38;;;17.81;40.26
12219;BME280;6172;42.646;23.344;2023-04-15T08:19:39;94047.16;;;16.46;41.94
12219;BME280;6172;42.646;23.344;2023-04-15T08:22:06;94036.97;;;16.37;42.30
12219;BME280;6172;42.646;23.344;2023-04-15T08:24:34;94034.00;;;17.59;40.99
12219;BME280;6172;42.646;23.344;2023-04-15T08:27:01;94037.13;;;16.90;41.26
12219;BME280;6172;42.646;23.344;2023-04-15T08:29:30;94039.66;;;16.79;40.53
12219;BME280;6172;42.646;23.344;2023-04-15T08:31:58;94034.78;;;16.18;41.48
12219;BME280;6172;42.646;23.344;2023-04-15T08:34:26;94036.38;;;16.89;40.65
12219;BME280;6172;42.646;23.344;2023-04-15T08:36:54;94036.06;;;16.08;40.37
12219;BME280;6172;42.646;23.344;2023-04-15T08:39:21;94036.31;;;16.10;39.39
12219;BME280;6172;42.646;23.344;2023-04-15T08:41:51;94027.78;;;16.96;37.62
12219;BME280;6172;42.646;23.344;2023-04-15T08:44:22;94017.22;;;16.95;36.97
12219;BME280;6172;42.646;23.344;2023-04-15T08:46:50;94025.69;;;17.44;36.57
12219;BME280;6172;42.646;23.344;2023-04-15T08:49:18;94012.38;;;17.43;36.37
12219;BME280;6172;42.646;23.344;2023-04-15T08:51:47;94018.22;;;16.83;37.28
12219;BME280;6172;42.646;23.344;2023-04-15T08:54:17;94016.91;;;15.72;39.48
12219;BME280;6172;42.646;23.344;2023-04-15T08:56:45;94011.91;;;16.12;39.32
12219;BME280;6172;42.646;23.344;2023-04-15T08:59:13;94014.09;;;15.99;40.99
12219;BME280;6172;42.646;23.344;2023-04-15T09:01:41;94018.53;;;16.29;39.18
12219;BME280;6172;42.646;23.344;2023-04-15T09:04:08;94022.13;;;16.11;39.78
12219;BME280;6172;42.646;23.344;2023-04-15T09:06:38;94017.38;;;16.91;37.39
12219;BME280;6172;42.646;23.344;2023-04-15T09:11:52;94003.66;;;16.35;38.61
12219;BME280;6172;42.646;23.344;2023-04-15T09:14:19;93992.56;;;16.77;38.10
12219;BME280;6172;42.646;23.344;2023-04-15T09:16:55;93985.06;;;16.30;37.56
12219;BME280;6172;42.646;23.344;2023-04-15T09:19:23;93978.84;;;16.91;36.26
12219;BME280;6172;42.646;23.344;2023-04-15T09:21:50;93967.91;;;17.35;33.28
12219;BME280;6172;42.646;23.344;2023-04-15T09:24:17;93977.03;;;17.85;32.08
12219;BME280;6172;42.646;23.344;2023-04-15T09:26:44;93982.28;;;17.83;33.02
12219;BME280;6172;42.646;23.344;2023-04-15T09:29:13;93982.00;;;17.37;34.51
12219;BME280;6172;42.646;23.344;2023-04-15T09:31:40;93991.56;;;16.89;35.53
12219;BME280;6172;42.646;23.344;2023-04-15T09:34:08;93996.56;;;16.76;33.94
12219;BME280;6172;42.646;23.344;2023-04-15T09:36:50;93992.97;;;16.84;34.35
12219;BME280;6172;42.646;23.344;2023-04-15T09:39:17;93990.72;;;17.21;34.27
12219;BME280;6172;42.646;23.344;2023-04-15T09:41:44;93985.47;;;17.23;34.05
12219;BME280;6172;42.646;23.344;2023-04-15T09:44:22;93988.19;;;17.76;32.88
12219;BME280;6172;42.646;23.344;2023-04-15T09:46:49;93983.53;;;17.82;28.89
12219;BME280;6172;42.646;23.344;2023-04-15T09:49:16;93975.41;;;17.05;29.37
12219;BME280;6172;42.646;23.344;2023-04-15T09:51:43;93994.84;;;16.78;30.50
12219;BME280;6172;42.646;23.344;2023-04-15T09:54:11;94013.09;;;17.14;33.07
12219;BME280;6172;42.646;23.344;2023-04-15T09:56:38;94001.75;;;16.97;31.54
12219;BME280;6172;42.646;23.344;2023-04-15T09:59:06;93996.47;;;17.23;29.21
12219;BME280;6172;42.646;23.344;2023-04-15T10:01:35;93985.91;;;16.69;29.88
12219;BME280;6172;42.646;23.344;2023-04-15T10:04:04;93976.72;;;17.24;29.77
12219;BME280;6172;42.646;23.344;2023-04-15T10:06:30;93978.00;;;17.53;28.88
12219;BME280;6172;42.646;23.344;2023-04-15T10:08:58;93973.38;;;17.59;28.71
12219;BME280;6172;42.646;23.344;2023-04-15T10:11:28;93961.09;;;17.89;29.02
12219;BME280;6172;42.646;23.344;2023-04-15T10:13:56;93947.19;;;17.98;29.80
12219;BME280;6172;42.646;23.344;2023-04-15T10:16:26;93948.03;;;18.04;30.21
12219;BME280;6172;42.646;23.344;2023-04-15T10:18:56;93965.81;;;17.30;31.30
12219;BME280;6172;42.646;23.344;2023-04-15T10:21:23;93958.97;;;16.73;32.27
12219;BME280;6172;42.646;23.344;2023-04-15T10:23:50;93963.13;;;16.68;32.51
12219;BME280;6172;42.646;23.344;2023-04-15T10:26:18;93954.41;;;17.52;31.53
12219;BME280;6172;42.646;23.344;2023-04-15T10:28:46;93962.13;;;17.48;31.02
12219;BME280;6172;42.646;23.344;2023-04-15T10:31:14;93944.50;;;17.69;30.34
12219;BME280;6172;42.646;23.344;2023-04-15T10:33:41;93958.91;;;17.64;31.25
12219;BME280;6172;42.646;23.344;2023-04-15T10:36:10;93951.69;;;17.66;31.10
12219;BME280;6172;42.646;23.344;2023-04-15T10:38:39;93954.63;;;17.92;31.36
12219;BME280;6172;42.646;23.344;2023-04-15T10:41:14;93941.28;;;17.56;31.70
12219;BME280;6172;42.646;23.344;2023-04-15T10:43:48;93942.66;;;17.80;31.39
12219;BME280;6172;42.646;23.344;2023-04-15T10:46:18;93950.53;;;18.02;30.82
12219;BME280;6172;42.646;23.344;2023-04-15T10:48:49;93951.19;;;17.97;31.01
12219;BME280;6172;42.646;23.344;2023-04-15T10:51:30;93953.94;;;17.97;31.06
12219;BME280;6172;42.646;23.344;2023-04-15T10:53:58;93947.16;;;18.12;30.30
12219;BME280;6172;42.646;23.344;2023-04-15T10:56:27;93932.84;;;18.28;30.84
12219;BME280;6172;42.646;23.344;2023-04-15T10:58:54;93925.94;;;18.38;30.01
12219;BME280;6172;42.646;23.344;2023-04-15T11:01:21;93937.91;;;18.15;30.95
12219;BME280;6172;42.646;23.344;2023-04-15T11:03:48;93943.69;;;17.97;31.82
12219;BME280;6172;42.646;23.344;2023-04-15T11:06:15;93934.41;;;18.15;31.64
12219;BME280;6172;42.646;23.344;2023-04-15T11:08:55;93936.47;;;18.54;30.89
12219;BME280;6172;42.646;23.344;2023-04-15T11:14:31;93942.28;;;18.56;29.32
12219;BME280;6172;42.646;23.344;2023-04-15T11:16:58;93940.47;;;18.19;29.59
12219;BME280;6172;42.646;23.344;2023-04-15T11:19:26;93938.41;;;18.34;29.40
12219;BME280;6172;42.646;23.344;2023-04-15T11:21:52;93935.28;;;18.61;25.17
12219;BME280;6172;42.646;23.344;2023-04-15T11:24:26;93922.72;;;18.40;24.50
12219;BME280;6172;42.646;23.344;2023-04-15T11:26:57;93933.13;;;18.30;25.80
12219;BME280;6172;42.646;23.344;2023-04-15T11:29:28;93932.16;;;18.33;26.68
12219;BME280;6172;42.646;23.344;2023-04-15T11:32:04;93928.75;;;18.24;26.47
12219;BME280;6172;42.646;23.344;2023-04-15T11:34:32;93931.94;;;18.37;26.91
12219;BME280;6172;42.646;23.344;2023-04-15T11:37:03;93941.25;;;18.39;26.27
12219;BME280;6172;42.646;23.344;2023-04-15T11:39:31;93936.25;;;18.03;27.18
12219;BME280;6172;42.646;23.344;2023-04-15T11:41:58;93921.22;;;18.04;26.33
12219;BME280;6172;42.646;23.344;2023-04-15T11:44:25;93925.25;;;18.23;24.75
12219;BME280;6172;42.646;23.344;2023-04-15T11:46:53;93925.16;;;18.18;24.39
12219;BME280;6172;42.646;23.344;2023-04-15T11:49:27;93926.09;;;17.95;24.29
12219;BME280;6172;42.646;23.344;2023-04-15T11:51:54;93920.09;;;17.96;24.61
12219;BME280;6172;42.646;23.344;2023-04-15T11:54:22;93924.31;;;17.92;25.19
12219;BME280;6172;42.646;23.344;2023-04-15T11:56:51;93923.72;;;17.88;25.21
12219;BME280;6172;42.646;23.344;2023-04-15T11:59:19;93929.50;;;18.04;25.97
12219;BME280;6172;42.646;23.344;2023-04-15T12:01:46;93919.22;;;17.56;26.00
12219;BME280;6172;42.646;23.344;2023-04-15T12:04:15;93918.34;;;17.79;25.43
12219;BME280;6172;42.646;23.344;2023-04-15T12:06:44;93917.31;;;17.62;25.69
12219;BME280;6172;42.646;23.344;2023-04-15T12:09:11;93916.53;;;17.32;26.55
12219;BME280;6172;42.646;23.344;2023-04-15T12:11:41;93915.41;;;17.24;26.82
12219;BME280;6172;42.646;23.344;2023-04-15T12:14:12;93918.81;;;17.48;26.12
12219;BME280;6172;42.646;23.344;2023-04-15T12:16:43;93920.16;;;17.53;26.36
12219;BME280;6172;42.646;23.344;2023-04-15T12:19:12;93916.72;;;17.58;25.89
12219;BME280;6172;42.646;23.344;2023-04-15T12:21:43;93916.84;;;17.49;26.69
12219;BME280;6172;42.646;23.344;2023-04-15T12:24:11;93918.44;;;17.41;26.97
12219;BME280;6172;42.646;23.344;2023-04-15T12:26:44;93918.44;;;17.41;27.01
12219;BME280;6172;42.646;23.344;2023-04-15T12:29:13;93922.59;;;17.21;26.89
12219;BME280;6172;42.646;23.344;2023-04-15T12:31:51;93919.94;;;16.98;28.48
12219;BME280;6172;42.646;23.344;2023-04-15T12:34:25;93927.75;;;17.28;28.18
12219;BME280;6172;42.646;23.344;2023-04-15T12:36:52;93926.13;;;17.22;27.15
12219;BME280;6172;42.646;23.344;2023-04-15T12:39:21;93928.88;;;17.37;26.91
12219;BME280;6172;42.646;23.344;2023-04-15T12:41:48;93922.91;;;17.53;27.45
12219;BME280;6172;42.646;23.344;2023-04-15T12:44:16;93930.41;;;17.67;27.25
12219;BME280;6172;42.646;23.344;2023-04-15T12:46:44;93935.34;;;17.48;27.48
12219;BME280;6172;42.646;23.344;2023-04-15T12:49:11;93929.84;;;17.48;27.65
12219;BME280;6172;42.646;23.344;2023-04-15T12:51:39;93940.66;;;17.52;27.44
12219;BME280;6172;42.646;23.344;2023-04-15T12:54:05;93934.22;;;17.25;28.01
12219;BME280;6172;42.646;23.344;2023-04-15T12:56:33;93942.19;;;17.53;27.76
12219;BME280;6172;42.646;23.344;2023-04-15T12:58:59;93943.03;;;17.29;27.89
12219;BME280;6172;42.646;23.344;2023-04-15T13:01:27;93937.81;;;17.02;28.43
12219;BME280;6172;42.646;23.344;2023-04-15T13:03:54;93928.03;;;17.30;27.73
12219;BME280;6172;42.646;23.344;2023-04-15T13:06:21;93929.72;;;17.13;27.75
12219;BME280;6172;42.646;23.344;2023-04-15T13:08:49;93935.81;;;17.32;27.59